Time;durP1;ratioP1;P1;durP2;ratioP2;P2;SDS_P1;SDS_P2;PMS_P1;PMS_P2;Temp;Humidity;BMP_temperature;BMP_pressure;BME280_temperature;BME280_humidity;BME280_pressure;Samples;Min_cycle;Max_cycle;Signal;HPM_P1;HPM_P2
2021/04/29 00:01:40;;;;;;;12.70;10.30;;;11.00;99.90;;;;;;5036451;28;20438;-94
2021/04/29 00:04:06;;;;;;;15.63;11.30;;;11.00;99.90;;;;;;5036525;28;20946;-94
2021/04/29 00:06:33;;;;;;;17.00;11.70;;;11.00;99.90;;;;;;5036760;28;20470;-94
2021/04/29 00:09:01;;;;;;;16.47;10.87;;;11.00;99.90;;;;;;5036577;28;20454;-93
2021/04/29 00:11:27;;;;;;;18.80;11.50;;;11.00;99.90;;;;;;5041176;28;20449;-95
2021/04/29 00:13:54;;;;;;;14.20;10.87;;;10.90;99.90;;;;;;5036344;28;20858;-92
2021/04/29 00:16:20;;;;;;;12.07;9.53;;;10.90;99.90;;;;;;5036431;28;20470;-94
2021/04/29 00:18:46;;;;;;;16.53;11.50;;;10.90;99.90;;;;;;5036327;28;20466;-94
2021/04/29 00:21:13;;;;;;;15.07;10.73;;;10.90;99.90;;;;;;5036307;28;20473;-93
2021/04/29 00:23:39;;;;;;;14.37;11.13;;;10.90;99.90;;;;;;5036253;28;20447;-93
2021/04/29 00:26:06;;;;;;;13.60;10.60;;;10.90;99.90;;;;;;5036088;28;20877;-94
2021/04/29 00:28:33;;;;;;;13.70;11.57;;;10.80;99.90;;;;;;5036813;28;20459;-95
2021/04/29 00:30:59;;;;;;;16.90;11.70;;;10.90;99.90;;;;;;5036219;28;20457;-93
2021/04/29 00:33:26;;;;;;;14.57;10.10;;;10.90;99.90;;;;;;5035625;28;20953;-95
2021/04/29 00:35:52;;;;;;;17.67;11.00;;;10.90;99.90;;;;;;5036996;28;20490;-93
2021/04/29 00:38:18;;;;;;;15.07;10.83;;;10.90;99.90;;;;;;5037935;28;20447;-93
2021/04/29 00:40:45;;;;;;;13.00;11.20;;;10.80;99.90;;;;;;5036763;28;20439;-93
2021/04/29 00:43:13;;;;;;;12.00;10.20;;;10.90;99.90;;;;;;5036222;28;20451;-94
2021/04/29 00:45:40;;;;;;;13.83;10.27;;;10.90;99.90;;;;;;5036138;28;20443;-93
2021/04/29 00:48:07;;;;;;;12.47;9.77;;;10.90;99.90;;;;;;5036112;28;20446;-93
2021/04/29 00:50:33;;;;;;;12.70;9.00;;;11.00;99.90;;;;;;5035768;28;20474;-94
2021/04/29 00:53:00;;;;;;;10.50;9.37;;;11.00;99.90;;;;;;5035562;28;20842;-93
2021/04/29 00:55:26;;;;;;;13.67;11.30;;;11.00;99.90;;;;;;5035726;28;20501;-94
2021/04/29 00:57:53;;;;;;;13.60;11.10;;;10.90;99.90;;;;;;5035245;28;20981;-94
2021/04/29 01:00:21;;;;;;;14.50;9.80;;;10.90;99.90;;;;;;5035528;28;20450;-92
2021/04/29 01:02:50;;;;;;;11.90;8.50;;;11.00;99.90;;;;;;5035359;28;20465;-93
2021/04/29 01:05:21;;;;;;;11.00;8.30;;;11.00;99.90;;;;;;5035358;28;20447;-93
2021/04/29 01:07:52;;;;;;;9.23;7.77;;;11.10;99.90;;;;;;5035360;28;20466;-93
2021/04/29 01:10:25;;;;;;;11.83;7.37;;;11.10;99.90;;;;;;5035078;28;20454;-93
2021/04/29 01:12:57;;;;;;;7.03;6.33;;;11.10;99.90;;;;;;5035143;28;20411;-93
2021/04/29 01:15:26;;;;;;;8.37;5.90;;;11.10;99.90;;;;;;5035357;28;20473;-94
2021/04/29 01:17:54;;;;;;;6.60;5.90;;;11.00;99.90;;;;;;5034861;28;20505;-93
2021/04/29 01:20:23;;;;;;;7.10;5.70;;;11.00;99.90;;;;;;5034376;28;20773;-94
2021/04/29 01:23:00;;;;;;;6.03;5.40;;;11.10;99.90;;;;;;5035228;28;20435;-93
2021/04/29 01:25:29;;;;;;;6.17;5.20;;;11.10;99.90;;;;;;5034963;28;20426;-93
2021/04/29 01:27:56;;;;;;;5.37;4.70;;;11.10;99.90;;;;;;5038303;28;21001;-92
2021/04/29 01:30:23;;;;;;;4.33;3.93;;;11.10;99.90;;;;;;5035781;28;20453;-93
2021/04/29 01:32:50;;;;;;;4.97;4.47;;;11.00;99.90;;;;;;5034063;28;20970;-86
2021/04/29 01:35:17;;;;;;;4.03;3.70;;;11.00;99.90;;;;;;5033719;28;20478;-85
2021/04/29 01:37:43;;;;;;;3.47;3.17;;;11.00;99.90;;;;;;5033486;28;20459;-86
2021/04/29 01:40:11;;;;;;;3.43;3.20;;;11.00;99.90;;;;;;5033708;28;20458;-85
2021/04/29 01:42:38;;;;;;;2.43;2.23;;;11.00;99.90;;;;;;5033390;28;21000;-85
2021/04/29 01:45:07;;;;;;;1.50;1.40;;;11.00;99.90;;;;;;5033378;28;20864;-85
2021/04/29 01:47:35;;;;;;;1.80;1.70;;;11.00;99.90;;;;;;5033567;28;20466;-85
2021/04/29 01:50:01;;;;;;;1.90;1.80;;;11.00;99.90;;;;;;5033695;28;20902;-85
2021/04/29 01:52:28;;;;;;;1.80;1.70;;;11.00;99.90;;;;;;5033540;28;20462;-85
2021/04/29 01:54:54;;;;;;;1.63;1.53;;;11.00;99.90;;;;;;5033176;28;20504;-85
2021/04/29 01:57:21;;;;;;;1.43;1.33;;;11.10;99.90;;;;;;5033453;28;20455;-85
2021/04/29 01:59:48;;;;;;;1.47;1.30;;;11.00;99.90;;;;;;5033402;28;20516;-85
2021/04/29 02:02:15;;;;;;;0.97;0.90;;;11.00;99.90;;;;;;5033516;28;20510;-85
2021/04/29 02:04:41;;;;;;;2.00;1.00;;;11.10;99.90;;;;;;5033141;28;20442;-85
2021/04/29 02:07:07;;;;;;;0.70;0.70;;;11.10;99.90;;;;;;5033331;28;20525;-85
2021/04/29 02:09:34;;;;;;;4.00;0.80;;;11.10;99.90;;;;;;5033070;28;20508;-85
2021/04/29 02:12:01;;;;;;;0.80;0.80;;;11.00;99.90;;;;;;5033353;28;20809;-85
2021/04/29 02:14:32;;;;;;;0.93;0.80;;;11.00;99.90;;;;;;5032885;28;21001;-84
2021/04/29 02:17:02;;;;;;;1.23;0.80;;;11.00;99.90;;;;;;5033245;28;20471;-85
2021/04/29 02:19:30;;;;;;;0.70;0.70;;;11.00;99.90;;;;;;5033028;28;20435;-85
2021/04/29 02:21:58;;;;;;;0.80;0.73;;;11.00;99.90;;;;;;5033227;28;20451;-85
2021/04/29 02:24:25;;;;;;;0.80;0.80;;;11.00;99.90;;;;;;5033088;28;20819;-85
2021/04/29 02:26:52;;;;;;;0.67;0.60;;;11.00;99.90;;;;;;5033162;28;20470;-84
2021/04/29 02:29:20;;;;;;;0.80;0.80;;;11.10;99.90;;;;;;5033174;28;20538;-85
2021/04/29 02:31:47;;;;;;;0.77;0.77;;;11.10;99.90;;;;;;5033840;28;20450;-85
2021/04/29 02:34:13;;;;;;;0.60;0.60;;;11.10;99.90;;;;;;5036982;28;20501;-85
2021/04/29 02:36:41;;;;;;;0.73;0.73;;;11.10;99.90;;;;;;5037050;28;20481;-84
2021/04/29 02:39:08;;;;;;;0.60;0.60;;;10.90;99.90;;;;;;5037082;28;20528;-84
2021/04/29 02:41:34;;;;;;;0.70;0.70;;;10.80;99.90;;;;;;5037060;28;20451;-84
2021/04/29 02:44:02;;;;;;;2.23;0.90;;;10.80;99.90;;;;;;5037051;28;20431;-84
2021/04/29 02:46:28;;;;;;;0.63;0.63;;;10.90;99.90;;;;;;5036844;28;20561;-85
2021/04/29 02:48:55;;;;;;;0.83;0.80;;;11.00;99.90;;;;;;5036869;28;20451;-84
2021/04/29 02:51:22;;;;;;;0.83;0.77;;;11.00;99.90;;;;;;5036395;28;20481;-84
2021/04/29 02:53:50;;;;;;;0.50;0.50;;;11.00;99.90;;;;;;5036398;28;20934;-84
2021/04/29 02:56:16;;;;;;;0.67;0.67;;;11.00;99.90;;;;;;5036728;28;20467;-85
2021/04/29 02:58:44;;;;;;;1.80;0.80;;;11.10;99.90;;;;;;5036736;28;20458;-84
2021/04/29 03:01:11;;;;;;;0.70;0.70;;;11.10;99.90;;;;;;5036652;28;20447;-85
2021/04/29 03:03:38;;;;;;;0.60;0.60;;;11.10;99.90;;;;;;5036612;28;20824;-85
2021/04/29 03:06:05;;;;;;;0.60;0.60;;;11.10;99.90;;;;;;5036313;28;20474;-85
2021/04/29 03:08:31;;;;;;;1.53;0.70;;;11.20;99.90;;;;;;5036509;28;20450;-85
2021/04/29 03:10:58;;;;;;;0.60;0.60;;;11.10;99.90;;;;;;5036984;28;20452;-85
2021/04/29 03:13:25;;;;;;;1.90;0.80;;;11.00;99.90;;;;;;5036530;28;20807;-85
2021/04/29 03:15:51;;;;;;;0.60;0.60;;;11.00;99.90;;;;;;5036112;28;20485;-85
2021/04/29 03:18:17;;;;;;;0.93;0.90;;;10.90;99.90;;;;;;5036658;28;20439;-85
2021/04/29 03:20:44;;;;;;;0.50;0.50;;;10.90;99.90;;;;;;5036288;28;20461;-85
2021/04/29 03:23:10;;;;;;;0.63;0.63;;;10.90;99.90;;;;;;5036285;28;20509;-86
2021/04/29 03:25:36;;;;;;;0.50;0.50;;;10.90;99.90;;;;;;5036012;28;20793;-85
2021/04/29 03:28:04;;;;;;;0.60;0.60;;;10.90;99.90;;;;;;5036165;28;20450;-85
2021/04/29 03:30:31;;;;;;;0.50;0.50;;;10.90;99.90;;;;;;5036131;28;20447;-85
2021/04/29 03:32:57;;;;;;;0.50;0.50;;;10.90;99.90;;;;;;5036059;28;20486;-85
2021/04/29 03:35:23;;;;;;;0.53;0.50;;;10.90;99.90;;;;;;5036022;28;20528;-84
2021/04/29 03:37:50;;;;;;;0.50;0.50;;;10.90;99.90;;;;;;5035889;28;20458;-85
2021/04/29 03:40:16;;;;;;;0.50;0.50;;;10.80;99.90;;;;;;5035928;28;20950;-85
2021/04/29 03:42:42;;;;;;;0.60;0.60;;;10.80;99.90;;;;;;5035399;28;20504;-84
2021/04/29 03:45:12;;;;;;;0.60;0.60;;;10.80;99.90;;;;;;5035923;28;20442;-84
2021/04/29 03:47:38;;;;;;;1.03;0.70;;;10.70;99.90;;;;;;5035563;28;20558;-85
2021/04/29 03:50:06;;;;;;;0.53;0.50;;;10.70;99.90;;;;;;5035647;28;20487;-85
2021/04/29 03:52:33;;;;;;;1.10;0.60;;;10.70;99.90;;;;;;5035658;28;20454;-85
2021/04/29 03:54:59;;;;;;;0.50;0.50;;;10.60;99.90;;;;;;5035629;28;20489;-85
2021/04/29 03:57:25;;;;;;;0.53;0.53;;;10.70;99.90;;;;;;5035973;28;20807;-85
2021/04/29 03:59:51;;;;;;;2.40;0.60;;;10.60;99.90;;;;;;5036317;28;20792;-84
2021/04/29 04:02:19;;;;;;;1.63;0.70;;;10.70;99.90;;;;;;5035533;28;20458;-84
2021/04/29 04:04:45;;;;;;;1.00;0.60;;;10.70;99.90;;;;;;5035206;28;20447;-84
2021/04/29 04:07:11;;;;;;;0.70;0.70;;;10.60;99.90;;;;;;5035376;28;20540;-84
2021/04/29 04:09:37;;;;;;;0.80;0.80;;;10.60;99.90;;;;;;5035435;28;20443;-85
2021/04/29 04:12:04;;;;;;;0.80;0.80;;;10.50;99.90;;;;;;5035102;28;20965;-84
2021/04/29 04:14:31;;;;;;;0.60;0.60;;;10.50;99.90;;;;;;5035026;28;20497;-85
2021/04/29 04:16:57;;;;;;;2.00;0.90;;;10.50;99.90;;;;;;5034841;28;21047;-84
2021/04/29 04:19:24;;;;;;;1.83;0.93;;;10.50;99.90;;;;;;5035137;28;20456;-84
2021/04/29 04:21:50;;;;;;;1.30;1.00;;;10.40;99.90;;;;;;5034913;28;20435;-84
2021/04/29 04:24:16;;;;;;;1.17;0.97;;;10.40;99.90;;;;;;5035145;28;20439;-84
2021/04/29 04:26:43;;;;;;;0.80;0.80;;;10.40;99.90;;;;;;5034660;28;20884;-84
2021/04/29 04:29:09;;;;;;;2.87;1.10;;;10.30;99.90;;;;;;5035143;28;20825;-85
2021/04/29 04:31:35;;;;;;;1.30;1.20;;;10.30;99.90;;;;;;5034561;28;20819;-84
2021/04/29 04:34:01;;;;;;;1.30;1.20;;;10.30;99.90;;;;;;5034849;28;20458;-84
2021/04/29 04:36:29;;;;;;;1.10;1.10;;;10.30;99.90;;;;;;5034785;28;20482;-84
2021/04/29 04:38:55;;;;;;;1.40;1.30;;;10.40;99.90;;;;;;5034888;28;20473;-84
2021/04/29 04:41:21;;;;;;;1.20;1.17;;;10.40;99.90;;;;;;5034432;28;20458;-84
2021/04/29 04:43:47;;;;;;;1.60;1.50;;;10.40;99.90;;;;;;5035232;28;20461;-84
2021/04/29 04:46:14;;;;;;;2.00;1.57;;;10.40;99.90;;;;;;5035315;28;20474;-83
2021/04/29 04:48:40;;;;;;;1.83;1.60;;;10.40;99.90;;;;;;5034634;28;20458;-83
2021/04/29 04:51:06;;;;;;;3.83;1.93;;;10.40;99.90;;;;;;5034098;28;20497;-84
2021/04/29 04:53:33;;;;;;;1.67;1.57;;;10.50;99.90;;;;;;5034538;28;20450;-84
2021/04/29 04:55:59;;;;;;;1.93;1.83;;;10.50;99.90;;;;;;5033583;28;20513;-84
2021/04/29 04:58:26;;;;;;;1.50;1.40;;;10.50;99.90;;;;;;5034585;28;20450;-83
2021/04/29 05:00:52;;;;;;;2.10;1.90;;;10.50;99.90;;;;;;5034200;28;20461;-83
2021/04/29 05:03:19;;;;;;;3.70;1.40;;;10.50;99.90;;;;;;5034391;28;20446;-84
2021/04/29 05:05:45;;;;;;;2.20;2.00;;;10.60;99.90;;;;;;5034363;28;20468;-84
2021/04/29 05:08:12;;;;;;;1.57;1.47;;;10.60;99.90;;;;;;5034261;28;20462;-83
2021/04/29 05:10:40;;;;;;;1.57;1.47;;;10.70;99.90;;;;;;5033967;28;20815;-84
2021/04/29 05:13:07;;;;;;;1.60;1.43;;;10.70;99.90;;;;;;5034200;28;20462;-82
2021/04/29 05:15:35;;;;;;;2.67;2.00;;;10.70;99.90;;;;;;5033891;28;20485;-83
2021/04/29 05:18:01;;;;;;;2.90;1.67;;;10.80;99.90;;;;;;5034107;28;20451;-83
2021/04/29 05:20:29;;;;;;;3.13;2.20;;;10.80;99.90;;;;;;5033821;28;20435;-83
2021/04/29 05:22:55;;;;;;;2.37;2.17;;;10.70;99.90;;;;;;5034010;28;20457;-83
2021/04/29 05:25:22;;;;;;;2.93;1.90;;;10.70;99.90;;;;;;5033913;28;20450;-83
2021/04/29 05:27:50;;;;;;;2.13;2.00;;;10.60;99.90;;;;;;5033857;28;20470;-83
2021/04/29 05:30:18;;;;;;;2.20;2.00;;;10.70;99.90;;;;;;5033917;28;20446;-83
2021/04/29 05:32:44;;;;;;;2.23;2.03;;;10.70;99.90;;;;;;5033576;28;20941;-82
2021/04/29 05:35:11;;;;;;;2.60;2.20;;;10.60;99.90;;;;;;5033747;28;20609;-83
2021/04/29 05:37:37;;;;;;;2.87;2.40;;;10.60;99.90;;;;;;5033471;28;20462;-82
2021/04/29 05:40:04;;;;;;;3.40;2.20;;;10.50;99.90;;;;;;5033783;28;20435;-83
2021/04/29 05:42:31;;;;;;;2.80;2.40;;;10.50;99.90;;;;;;5033450;28;20957;-82
2021/04/29 05:44:58;;;;;;;3.60;2.13;;;10.50;99.90;;;;;;5033694;28;20479;-83
2021/04/29 05:47:24;;;;;;;2.50;2.37;;;10.60;99.90;;;;;;5033537;28;20477;-83
2021/04/29 05:49:50;;;;;;;2.83;2.27;;;10.60;99.90;;;;;;5033281;28;20544;-83
2021/04/29 05:52:16;;;;;;;4.13;2.83;;;10.60;99.90;;;;;;5033244;28;20849;-82
2021/04/29 05:54:43;;;;;;;5.93;2.67;;;10.60;99.90;;;;;;5033151;28;20536;-83
2021/04/29 05:57:09;;;;;;;2.60;2.37;;;10.50;99.90;;;;;;5033391;28;20517;-84
2021/04/29 05:59:35;;;;;;;3.80;2.63;;;10.50;99.90;;;;;;5033148;28;20450;-81
2021/04/29 06:02:02;;;;;;;3.70;2.57;;;10.60;99.90;;;;;;5033161;28;20458;-81
2021/04/29 06:04:29;;;;;;;3.70;2.40;;;10.70;99.90;;;;;;5033106;28;20934;-79
2021/04/29 06:06:55;;;;;;;2.30;1.80;;;10.70;99.90;;;;;;5033062;28;20475;-80
2021/04/29 06:09:21;;;;;;;3.10;2.30;;;10.80;99.90;;;;;;5033349;28;20451;-81
2021/04/29 06:11:48;;;;;;;2.60;2.40;;;10.90;99.90;;;;;;5033318;28;20524;-80
2021/04/29 06:14:14;;;;;;;5.13;2.70;;;11.00;99.90;;;;;;5033198;28;20457;-80
2021/04/29 06:16:40;;;;;;;5.00;2.60;;;11.20;99.90;;;;;;5033206;28;20474;-81
2021/04/29 06:19:08;;;;;;;3.17;2.83;;;11.40;99.90;;;;;;5033216;28;20451;-81
2021/04/29 06:21:35;;;;;;;3.27;2.73;;;11.60;99.90;;;;;;5032891;28;20826;-80
2021/04/29 06:24:02;;;;;;;2.67;2.47;;;11.90;99.90;;;;;;5033172;28;20465;-82
2021/04/29 06:26:30;;;;;;;3.23;3.00;;;12.00;99.90;;;;;;5032977;28;20475;-80
2021/04/29 06:28:56;;;;;;;3.40;2.43;;;12.10;99.90;;;;;;5033148;28;20454;-81
2021/04/29 06:31:22;;;;;;;2.40;2.30;;;12.10;99.90;;;;;;5032868;28;20439;-80
2021/04/29 06:33:49;;;;;;;2.87;2.67;;;12.30;99.90;;;;;;5033093;28;20473;-79
2021/04/29 06:36:17;;;;;;;3.50;3.30;;;12.60;99.90;;;;;;5032928;28;20494;-80
2021/04/29 06:38:43;;;;;;;3.00;2.80;;;13.00;99.90;;;;;;5032803;28;20435;-80
2021/04/29 06:41:09;;;;;;;3.20;2.97;;;13.20;99.90;;;;;;5032716;28;20442;-79
2021/04/29 06:43:36;;;;;;;4.00;2.90;;;13.50;99.90;;;;;;5033522;28;20461;-80
2021/04/29 06:46:02;;;;;;;3.17;2.97;;;14.00;99.90;;;;;;5032870;28;20467;-79
2021/04/29 06:48:28;;;;;;;2.97;2.77;;;14.70;99.90;;;;;;5032864;28;20505;-80
2021/04/29 06:50:56;;;;;;;3.63;3.33;;;15.00;99.90;;;;;;5032410;28;20481;-80
2021/04/29 06:53:23;;;;;;;3.70;2.90;;;15.40;99.90;;;;;;5032887;28;20473;-81
2021/04/29 06:55:49;;;;;;;3.10;2.90;;;16.40;99.90;;;;;;5032886;28;20475;-85
2021/04/29 06:58:15;;;;;;;3.40;3.10;;;17.10;99.90;;;;;;5033096;28;20449;-86
2021/04/29 07:00:42;;;;;;;3.47;3.17;;;17.50;99.90;;;;;;5033082;28;20450;-85
2021/04/29 07:03:08;;;;;;;3.50;2.87;;;18.00;99.90;;;;;;5033455;28;20415;-84
2021/04/29 07:05:34;;;;;;;4.43;3.47;;;17.60;99.90;;;;;;5033096;28;20477;-85
2021/04/29 07:08:00;;;;;;;3.33;3.03;;;17.40;99.90;;;;;;5032923;28;20434;-85
2021/04/29 07:10:27;;;;;;;3.00;2.80;;;16.80;99.90;;;;;;5032921;28;20454;-84
2021/04/29 07:12:54;;;;;;;5.33;3.30;;;16.20;99.90;;;;;;5032854;28;20824;-85
2021/04/29 07:15:20;;;;;;;3.90;3.50;;;15.70;99.90;;;;;;5032643;28;20987;-85
2021/04/29 07:17:47;;;;;;;3.33;3.03;;;15.50;99.90;;;;;;5033495;28;20528;-85
2021/04/29 07:20:14;;;;;;;4.70;3.37;;;15.40;99.90;;;;;;5036037;28;20441;-86
2021/04/29 07:22:40;;;;;;;5.80;4.43;;;15.50;99.90;;;;;;5036479;28;20497;-86
2021/04/29 07:25:08;;;;;;;5.37;4.87;;;15.50;99.90;;;;;;5036438;28;20508;-86
2021/04/29 07:27:35;;;;;;;5.00;4.30;;;15.60;99.90;;;;;;5036858;28;20478;-85
2021/04/29 07:30:02;;;;;;;5.33;4.83;;;15.40;99.90;;;;;;5036014;28;20946;-86
2021/04/29 07:32:28;;;;;;;6.70;5.27;;;15.20;99.90;;;;;;5036402;28;20455;-80
2021/04/29 07:34:54;;;;;;;6.30;4.97;;;15.30;99.90;;;;;;5035961;28;20489;-80
2021/04/29 07:37:21;;;;;;;6.07;4.90;;;16.20;99.90;;;;;;5035612;28;20480;-80
2021/04/29 07:39:47;;;;;;;6.10;4.90;;;17.80;99.90;;;;;;5035906;28;20462;-80
2021/04/29 07:42:13;;;;;;;5.50;5.00;;;18.60;96.10;;;;;;5039602;28;20446;-80
2021/04/29 07:44:40;;;;;;;4.70;4.30;;;19.40;94.90;;;;;;5035990;28;20439;-80
2021/04/29 07:47:06;;;;;;;5.53;5.00;;;20.50;88.10;;;;;;5035760;28;20473;-82
2021/04/29 07:49:33;;;;;;;6.67;4.97;;;21.80;79.60;;;;;;5035323;28;20488;-81
2021/04/29 07:51:59;;;;;;;6.10;5.00;;;22.60;76.00;;;;;;5035766;28;20191;-80
2021/04/29 07:54:25;;;;;;;5.50;5.07;;;23.70;70.80;;;;;;5035577;28;20215;-80
2021/04/29 07:56:52;;;;;;;5.82;4.80;;;25.10;64.60;;;;;;5035582;28;20587;-80
2021/04/29 07:59:18;;;;;;;5.07;4.57;;;25.90;57.80;;;;;;5035247;28;20618;-80
2021/04/29 08:01:45;;;;;;;4.88;4.57;;;25.80;56.40;;;;;;5035361;28;20211;-86
2021/04/29 08:04:11;;;;;;;4.97;4.57;;;26.00;54.40;;;;;;5039732;28;20192;-87
2021/04/29 08:06:37;;;;;;;5.80;5.35;;;26.60;53.90;;;;;;5036242;28;20716;-87
2021/04/29 08:09:04;;;;;;;6.40;5.13;;;26.10;53.40;;;;;;5036198;28;20210;-87
2021/04/29 08:11:31;;;;;;;5.50;5.10;;;24.70;54.10;;;;;;5036008;28;20195;-87
2021/04/29 08:13:57;;;;;;;6.20;5.68;;;23.50;56.30;;;;;;5036371;28;20207;-87
2021/04/29 08:16:23;;;;;;;7.03;6.43;;;21.70;58.70;;;;;;5036130;28;20593;-87
2021/04/29 08:18:50;;;;;;;6.47;5.88;;;20.50;61.20;;;;;;5036205;28;20191;-86
2021/04/29 08:21:17;;;;;;;7.17;6.20;;;19.40;62.60;;;;;;5036053;28;20203;-87
2021/04/29 08:23:43;;;;;;;6.60;6.07;;;18.20;66.30;;;;;;5035691;28;20419;-87
2021/04/29 08:26:10;;;;;;;9.00;5.80;;;17.90;71.20;;;;;;5036666;28;20473;-87
2021/04/29 08:28:36;;;;;;;8.80;6.70;;;17.80;71.00;;;;;;5036110;28;20411;-87
2021/04/29 08:31:02;;;;;;;6.47;5.77;;;17.90;73.00;;;;;;5035823;28;20415;-87
2021/04/29 08:33:28;;;;;;;7.57;6.97;;;17.80;72.80;;;;;;5035346;28;20435;-80
2021/04/29 08:35:56;;;;;;;14.30;6.80;;;17.70;71.80;;;;;;5034955;28;20532;-80
2021/04/29 08:38:22;;;;;;;9.10;6.83;;;17.70;73.90;;;;;;5034929;28;20443;-80
2021/04/29 08:40:48;;;;;;;9.87;6.87;;;17.80;73.80;;;;;;5034781;28;20432;-80
2021/04/29 08:43:16;;;;;;;8.90;7.00;;;18.10;73.60;;;;;;5034516;28;20493;-81
2021/04/29 08:45:44;;;;;;;7.47;6.73;;;18.40;74.00;;;;;;5034773;28;20454;-80
2021/04/29 08:48:12;;;;;;;7.00;6.40;;;18.30;73.20;;;;;;5034723;28;20435;-80
2021/04/29 08:50:38;;;;;;;6.87;6.20;;;18.30;72.90;;;;;;5034261;28;20490;-80
2021/04/29 08:53:05;;;;;;;7.40;6.70;;;18.10;73.20;;;;;;5034593;28;20431;-80
2021/04/29 08:55:32;;;;;;;6.97;6.17;;;17.60;72.60;;;;;;5034502;28;20529;-80
2021/04/29 08:57:58;;;;;;;8.00;5.93;;;17.20;74.90;;;;;;5034464;28;20506;-80
2021/04/29 09:00:25;;;;;;;6.80;6.17;;;17.10;75.60;;;;;;5034458;28;20453;-81
2021/04/29 09:02:55;;;;;;;6.57;5.93;;;16.90;75.70;;;;;;5034127;28;20416;-81
2021/04/29 09:05:23;;;;;;;9.50;7.23;;;16.60;76.20;;;;;;5034351;28;20793;-80
2021/04/29 09:07:54;;;;;;;10.23;7.10;;;16.20;77.80;;;;;;5033878;28;21020;-81
2021/04/29 09:10:26;;;;;;;7.93;6.70;;;16.30;80.40;;;;;;5034237;28;20435;-83
2021/04/29 09:12:56;;;;;;;7.53;6.20;;;16.20;79.60;;;;;;5034366;28;20511;-82
2021/04/29 09:15:24;;;;;;;10.17;5.50;;;16.30;80.80;;;;;;5033703;28;20758;-81
2021/04/29 09:18:11;;;;;;;6.77;6.13;;;16.60;82.90;;;;;;5034022;28;20482;-81
2021/04/29 09:20:39;;;;;;;7.27;6.57;;;16.70;80.80;;;;;;5033642;28;20816;-80
2021/04/29 09:23:07;;;;;;;5.80;5.30;;;17.00;80.80;;;;;;5033737;28;20431;-81
2021/04/29 09:25:36;;;;;;;6.80;6.10;;;17.20;82.00;;;;;;5032814;28;20454;-81
2021/04/29 09:28:02;;;;;;;8.60;6.37;;;17.30;82.00;;;;;;5033571;28;20489;-80
2021/04/29 09:30:29;;;;;;;8.70;6.87;;;17.30;81.30;;;;;;5033606;28;20427;-80
2021/04/29 09:33:00;;;;;;;6.70;5.83;;;17.00;84.00;;;;;;5033602;28;20435;-80
2021/04/29 09:35:27;;;;;;;6.63;5.23;;;16.70;87.20;;;;;;5033733;28;20553;-81
2021/04/29 09:37:58;;;;;;;8.20;5.93;;;16.30;90.40;;;;;;5033626;28;20474;-81
2021/04/29 09:40:26;;;;;;;7.40;6.37;;;15.90;92.50;;;;;;5037722;28;20497;-82
2021/04/29 09:42:55;;;;;;;7.27;6.57;;;15.60;93.60;;;;;;5034927;28;20467;-81
2021/04/29 09:45:26;;;;;;;10.07;9.00;;;15.60;96.80;;;;;;5033184;28;20476;-82
2021/04/29 09:48:00;;;;;;;7.30;6.60;;;15.60;98.60;;;;;;5033569;28;20561;-82
2021/04/29 09:50:28;;;;;;;7.97;7.17;;;16.10;99.40;;;;;;5033291;28;20497;-81
2021/04/29 09:52:59;;;;;;;8.13;5.90;;;16.70;99.00;;;;;;5033574;28;20443;-80
2021/04/29 09:55:29;;;;;;;6.30;5.73;;;17.80;96.30;;;;;;5033496;28;20471;-82
2021/04/29 09:58:13;;;;;;;6.10;5.50;;;18.70;92.60;;;;;;5033028;28;20458;-81
2021/04/29 10:00:39;;;;;;;6.13;5.50;;;19.70;90.90;;;;;;5033153;28;20941;-80
2021/04/29 10:03:07;;;;;;;6.90;5.70;;;20.50;82.20;;;;;;5033528;28;20431;-80
2021/04/29 10:05:37;;;;;;;6.03;5.40;;;20.80;77.00;;;;;;5033453;28;20494;-81
2021/04/29 10:08:06;;;;;;;6.40;5.80;;;21.20;75.10;;;;;;5033435;28;20438;-81
2021/04/29 10:10:36;;;;;;;7.03;6.20;;;22.20;76.40;;;;;;5033415;28;20434;-80
2021/04/29 10:13:05;;;;;;;8.90;5.63;;;22.90;70.30;;;;;;5033429;28;20426;-80
2021/04/29 10:15:33;;;;;;;6.90;6.00;;;22.70;65.90;;;;;;5033004;28;20980;-80
2021/04/29 10:17:59;;;;;;;6.73;6.13;;;22.60;65.00;;;;;;5033661;28;20885;-81
2021/04/29 10:20:26;;;;;;;6.73;6.10;;;22.70;66.40;;;;;;5033514;28;20801;-81
2021/04/29 10:22:53;;;;;;;5.60;5.20;;;22.30;62.50;;;;;;5033655;28;20309;-82
2021/04/29 10:25:27;;;;;;;6.00;5.23;;;21.80;66.40;;;;;;5033307;28;20441;-81
2021/04/29 10:27:56;;;;;;;6.90;6.03;;;21.40;63.30;;;;;;5032875;28;20926;-81
2021/04/29 10:30:39;;;;;;;6.70;5.67;;;20.90;64.70;;;;;;5033380;28;20438;-86
2021/04/29 10:33:14;;;;;;;6.13;5.60;;;20.20;67.80;;;;;;5034972;28;20501;-85
2021/04/29 10:35:51;;;;;;;5.43;4.93;;;19.60;67.70;;;;;;5032916;28;20464;-84
2021/04/29 10:38:30;;;;;;;5.80;4.90;;;20.00;67.40;;;;;;5033353;28;20438;-84
2021/04/29 10:40:58;;;;;;;4.80;4.23;;;20.50;66.90;;;;;;5033206;28;20487;-83
2021/04/29 10:43:35;;;;;;;6.20;5.60;;;22.00;66.40;;;;;;5033196;28;20488;-83
2021/04/29 10:46:05;;;;;;;5.40;5.00;;;24.00;61.90;;;;;;5033731;28;20824;-80
2021/04/29 10:48:38;;;;;;;5.13;4.73;;;25.70;53.70;;;;;;5033832;28;20215;-84
2021/04/29 10:51:07;;;;;;;4.13;3.90;;;24.40;52.80;;;;;;5032819;28;20709;-84
2021/04/29 10:53:35;;;;;;;4.10;3.63;;;23.50;54.20;;;;;;5035077;28;20207;-84
2021/04/29 10:56:04;;;;;;;7.37;4.33;;;23.20;54.60;;;;;;5036522;28;20257;-84
2021/04/29 10:58:31;;;;;;;5.63;4.30;;;22.60;55.80;;;;;;5037032;28;20487;-84
2021/04/29 11:01:04;;;;;;;3.90;3.57;;;22.90;57.10;;;;;;5037076;28;20407;-84
2021/04/29 11:03:33;;;;;;;3.70;3.50;;;24.00;56.70;;;;;;5037025;28;20261;-83
2021/04/29 11:06:11;;;;;;;4.78;3.30;;;24.70;53.30;;;;;;5036462;28;20724;-84
2021/04/29 11:08:39;;;;;;;5.88;5.43;;;24.60;51.90;;;;;;5036515;28;20187;-85
2021/04/29 11:11:18;;;;;;;4.20;3.90;;;23.50;50.70;;;;;;5038594;28;20188;-83
2021/04/29 11:13:44;;;;;;;4.07;3.67;;;22.70;53.60;;;;;;5037603;28;20295;-84
2021/04/29 11:16:12;;;;;;;3.90;3.50;;;22.00;53.10;;;;;;5037460;28;20227;-84
2021/04/29 11:18:40;;;;;;;3.67;3.07;;;21.80;54.40;;;;;;5040930;28;20203;-84
2021/04/29 11:21:08;;;;;;;5.30;4.20;;;21.30;53.70;;;;;;5037198;28;20419;-84
2021/04/29 11:23:39;;;;;;;5.27;3.97;;;20.90;54.60;;;;;;5036375;28;20453;-84
2021/04/29 11:26:06;;;;;;;4.60;4.20;;;20.60;56.80;;;;;;5036425;28;20520;-83
2021/04/29 11:28:33;;;;;;;3.37;3.17;;;20.40;57.10;;;;;;5036467;28;20439;-84
2021/04/29 11:31:00;;;;;;;3.97;3.60;;;20.40;55.30;;;;;;5036325;28;20426;-84
2021/04/29 11:33:33;;;;;;;3.77;3.47;;;20.10;54.60;;;;;;5036829;28;20521;-84
2021/04/29 11:35:59;;;;;;;3.83;3.40;;;20.00;57.30;;;;;;5036524;28;20494;-85
2021/04/29 11:38:25;;;;;;;4.17;3.77;;;19.80;55.50;;;;;;5036862;28;20469;-84
2021/04/29 11:40:52;;;;;;;3.83;3.40;;;19.50;57.20;;;;;;5036027;28;20431;-85
2021/04/29 11:43:18;;;;;;;3.87;3.57;;;19.20;56.90;;;;;;5036249;28;20508;-85
2021/04/29 11:45:45;;;;;;;4.60;3.80;;;18.80;57.90;;;;;;5036066;28;20450;-85
2021/04/29 11:48:13;;;;;;;4.27;3.73;;;18.30;59.50;;;;;;5035995;28;20462;-85
2021/04/29 11:50:42;;;;;;;6.90;4.10;;;17.90;60.50;;;;;;5035561;28;20481;-85
2021/04/29 11:53:10;;;;;;;5.33;3.97;;;17.60;62.00;;;;;;5035777;28;20454;-84
2021/04/29 11:55:40;;;;;;;4.70;3.60;;;17.40;63.70;;;;;;5035612;28;20470;-85
2021/04/29 11:58:08;;;;;;;5.23;4.27;;;17.40;62.30;;;;;;5036067;28;20939;-85
2021/04/29 12:00:36;;;;;;;4.43;3.57;;;17.10;63.50;;;;;;5035731;28;20435;-85
2021/04/29 12:03:04;;;;;;;4.83;3.90;;;17.00;65.00;;;;;;5035945;28;20956;-85
2021/04/29 12:05:35;;;;;;;4.00;3.70;;;16.90;65.00;;;;;;5035695;28;20439;-85
2021/04/29 12:08:04;;;;;;;4.50;4.10;;;16.60;65.30;;;;;;5035753;28;20415;-85
2021/04/29 12:10:48;;;;;;;3.93;3.63;;;16.60;65.10;;;;;;5035905;28;20950;-86
2021/04/29 12:13:16;;;;;;;4.37;3.50;;;16.60;65.60;;;;;;5035632;28;20490;-85
2021/04/29 12:15:43;;;;;;;3.53;3.30;;;16.50;66.60;;;;;;5035331;28;20494;-85
2021/04/29 12:18:12;;;;;;;4.30;3.80;;;16.50;66.50;;;;;;5035375;28;20469;-85
2021/04/29 12:20:38;;;;;;;4.00;3.70;;;16.40;66.60;;;;;;5035870;28;20443;-86
2021/04/29 12:23:08;;;;;;;3.47;3.17;;;16.30;65.60;;;;;;5035712;28;20446;-86
2021/04/29 12:25:34;;;;;;;4.30;3.20;;;16.30;66.30;;;;;;5035511;28;20814;-86
2021/04/29 12:28:11;;;;;;;6.73;3.80;;;16.20;67.60;;;;;;5035367;28;20458;-86
2021/04/29 12:30:37;;;;;;;3.10;2.90;;;16.20;67.60;;;;;;5041965;28;20465;-86
2021/04/29 12:33:14;;;;;;;2.80;2.60;;;16.20;67.70;;;;;;5044942;28;20961;-86
2021/04/29 12:35:40;;;;;;;3.43;3.13;;;15.90;67.00;;;;;;5045150;28;20455;-85
2021/04/29 12:38:08;;;;;;;2.77;2.57;;;15.80;68.20;;;;;;5044462;28;20468;-85
2021/04/29 12:40:37;;;;;;;2.90;2.70;;;15.90;70.00;;;;;;5040525;28;20785;-83
2021/04/29 12:43:15;;;;;;;3.70;2.73;;;16.00;68.70;;;;;;5039714;28;20450;-85
2021/04/29 12:45:52;;;;;;;3.83;3.53;;;16.10;70.10;;;;;;5039900;28;20451;-87
2021/04/29 12:48:28;;;;;;;4.53;4.13;;;16.10;69.80;;;;;;5037073;28;20454;-86